createdAt,value
2023-05-19T00:05:31.236Z,37.39
2023-05-19T00:19:04.689Z,39.14
2023-05-19T00:21:09.350Z,39.76
2023-05-19T00:23:12.137Z,39.25
2023-05-19T00:25:14.668Z,39.41
2023-05-19T00:27:17.276Z,39.50
2023-05-19T00:29:19.911Z,39.78
2023-05-19T00:31:22.795Z,40.23
2023-05-19T00:33:25.777Z,40.34
2023-05-19T00:35:28.311Z,40.44
2023-05-19T00:37:31.027Z,40.68
2023-05-19T00:39:33.575Z,40.72
2023-05-19T00:41:36.417Z,40.98
2023-05-19T00:43:39.131Z,40.98
2023-05-19T00:45:41.779Z,41.49
2023-05-19T00:47:44.563Z,41.55
2023-05-19T00:49:47.320Z,42.09
2023-05-19T00:51:50.143Z,41.90
2023-05-19T00:53:52.988Z,41.74
2023-05-19T00:55:55.814Z,41.46
2023-05-19T00:57:58.829Z,41.07
2023-05-19T01:00:01.467Z,40.60
2023-05-19T01:02:08.152Z,40.23
2023-05-19T01:04:11.516Z,40.03
2023-05-19T01:06:15.208Z,39.49
2023-05-19T01:08:18.397Z,39.22
2023-05-19T01:10:21.254Z,38.71
2023-05-19T01:12:24.098Z,38.84
2023-05-19T01:14:27.389Z,38.54
2023-05-19T01:16:43.652Z,38.30
2023-05-19T01:19:12.424Z,38.46
2023-05-19T01:21:36.658Z,38.32
2023-05-19T01:24:09.239Z,38.69
2023-05-19T01:26:20.778Z,38.70
2023-05-19T01:28:43.064Z,38.87
2023-05-19T01:30:52.800Z,38.60
2023-05-19T01:33:03.381Z,38.62
2023-05-19T01:35:08.411Z,38.94
2023-05-19T01:37:15.119Z,38.66
2023-05-19T01:39:17.753Z,38.84
2023-05-19T01:41:23.129Z,38.29
2023-05-19T01:43:27.584Z,37.96
2023-05-19T01:45:32.618Z,38.45
2023-05-19T01:47:38.582Z,38.36
2023-05-19T01:49:41.473Z,38.61
2023-05-19T01:51:44.300Z,38.83
2023-05-19T01:53:47.004Z,39.40
2023-05-19T01:55:52.648Z,39.20
2023-05-19T01:58:19.222Z,39.80
2023-05-19T02:00:54.344Z,39.79
2023-05-19T02:03:09.346Z,40.15
2023-05-19T02:05:29.665Z,39.20
2023-05-19T02:07:48.825Z,40.62
2023-05-19T02:10:05.013Z,40.06
2023-05-19T02:12:18.886Z,40.13
2023-05-19T02:14:46.063Z,39.64
2023-05-19T02:16:49.420Z,39.49
2023-05-19T02:18:54.101Z,39.47
2023-05-19T02:20:56.840Z,39.52
2023-05-19T02:22:59.386Z,39.41
2023-05-19T02:25:02.334Z,39.75
2023-05-19T02:27:06.506Z,39.53
2023-05-19T02:29:09.065Z,39.34
2023-05-19T02:31:11.794Z,39.25
2023-05-19T02:33:14.449Z,39.68
2023-05-19T02:35:17.410Z,40.02
2023-05-19T02:37:23.928Z,40.06
2023-05-19T02:39:26.782Z,40.54
2023-05-19T02:41:29.538Z,39.95
2023-05-19T02:43:32.215Z,40.45
2023-05-19T02:45:34.877Z,41.06
2023-05-19T02:47:38.489Z,41.57
2023-05-19T02:49:41.438Z,42.11
2023-05-19T02:51:44.076Z,41.81
2023-05-19T02:53:46.653Z,41.62
2023-05-19T02:55:49.353Z,42.71
2023-05-19T02:57:51.940Z,42.48
2023-05-19T02:59:54.573Z,42.96
2023-05-19T03:02:02.098Z,43.10
2023-05-19T03:04:04.986Z,43.24
2023-05-19T03:06:10.844Z,43.69
2023-05-19T03:08:13.496Z,43.88
2023-05-19T03:10:16.179Z,43.65
2023-05-19T03:12:18.935Z,43.87
2023-05-19T03:14:24.265Z,43.86
2023-05-19T03:16:28.330Z,44.73
2023-05-19T03:18:31.210Z,45.14
2023-05-19T03:20:34.082Z,45.13
2023-05-19T03:22:37.074Z,45.98
2023-05-19T03:24:39.704Z,47.23
2023-05-19T03:26:42.955Z,46.35
2023-05-19T03:28:45.616Z,46.62
2023-05-19T03:30:50.231Z,46.60
2023-05-19T03:32:53.427Z,46.67
2023-05-19T03:34:56.127Z,47.04
2023-05-19T03:36:58.652Z,46.88
2023-05-19T03:39:01.311Z,47.22
2023-05-19T03:41:04.236Z,47.96
2023-05-19T03:43:07.454Z,48.17
2023-05-19T03:45:10.417Z,48.33
2023-05-19T03:47:13.078Z,48.04
2023-05-19T03:49:15.796Z,48.23
2023-05-19T03:51:18.797Z,47.29
2023-05-19T03:53:21.660Z,48.28
2023-05-19T03:55:24.369Z,48.53
2023-05-19T03:57:27.227Z,48.47
2023-05-19T03:59:29.808Z,49.39
2023-05-19T04:01:32.433Z,48.78
2023-05-19T04:03:35.279Z,49.00
2023-05-19T04:05:38.502Z,49.87
2023-05-19T04:07:41.829Z,50.00
2023-05-19T04:09:45.323Z,49.52
2023-05-19T04:11:48.013Z,49.58
2023-05-19T04:13:50.756Z,48.64
2023-05-19T04:15:53.630Z,48.56
2023-05-19T04:17:56.327Z,48.52
2023-05-19T04:19:58.989Z,49.19
2023-05-19T04:22:01.691Z,49.02
2023-05-19T04:24:06.552Z,48.90
2023-05-19T04:26:09.409Z,47.88
2023-05-19T04:28:13.104Z,47.55
2023-05-19T04:30:22.458Z,47.93
2023-05-19T04:32:25.820Z,47.31
2023-05-19T04:34:28.838Z,46.71
2023-05-19T04:36:31.386Z,47.32
2023-05-19T04:38:34.633Z,47.48
2023-05-19T04:40:37.342Z,47.02
2023-05-19T04:42:43.246Z,46.98
2023-05-19T04:44:46.255Z,46.65
2023-05-19T04:46:50.222Z,47.02
2023-05-19T04:48:55.450Z,45.78
2023-05-19T04:50:58.014Z,45.56
2023-05-19T04:53:01.040Z,46.13
2023-05-19T04:55:04.357Z,45.82
2023-05-19T04:57:10.613Z,46.69
2023-05-19T04:59:13.332Z,47.43
2023-05-19T05:01:16.206Z,45.28
2023-05-19T05:03:19.356Z,46.12
2023-05-19T05:05:22.071Z,44.81
2023-05-19T05:07:24.750Z,45.88
2023-05-19T05:09:27.330Z,46.61
2023-05-19T05:11:30.271Z,46.51
2023-05-19T05:13:33.296Z,48.09
2023-05-19T05:15:36.173Z,46.47
2023-05-19T05:17:39.270Z,45.60
2023-05-19T05:19:42.399Z,46.10
2023-05-19T05:21:45.987Z,45.52
2023-05-19T05:23:49.399Z,45.89
2023-05-19T05:25:52.158Z,45.90
2023-05-19T05:27:54.924Z,45.70
2023-05-19T05:29:59.221Z,45.43
2023-05-19T05:32:02.412Z,41.90
2023-05-19T05:34:05.310Z,42.21
2023-05-19T05:36:08.372Z,43.03
2023-05-19T05:38:11.713Z,43.15
2023-05-19T05:40:14.517Z,42.89
2023-05-19T05:42:17.160Z,44.89
2023-05-19T05:44:19.730Z,42.90
2023-05-19T05:46:22.288Z,42.89
2023-05-19T05:48:25.334Z,42.62
2023-05-19T05:50:28.293Z,39.75
2023-05-19T05:52:32.645Z,39.77
2023-05-19T05:54:35.939Z,40.56
2023-05-19T05:56:38.876Z,40.34
2023-05-19T05:58:41.600Z,41.04
2023-05-19T06:00:44.490Z,41.41
2023-05-19T06:02:50.704Z,41.31
2023-05-19T06:04:54.310Z,42.23
2023-05-19T06:07:01.321Z,41.35
2023-05-19T06:09:04.691Z,42.43
2023-05-19T06:11:09.217Z,42.45
2023-05-19T06:13:11.896Z,42.93
2023-05-19T06:15:14.492Z,43.28
2023-05-19T06:17:17.088Z,42.65
2023-05-19T06:19:22.941Z,43.18
2023-05-19T06:21:25.859Z,42.81
2023-05-19T06:23:29.299Z,44.22
2023-05-19T06:25:32.337Z,43.23
2023-05-19T06:27:35.744Z,42.11
2023-05-19T06:29:38.380Z,42.47
2023-05-19T06:31:41.081Z,42.37
2023-05-19T06:33:43.687Z,41.91
2023-05-19T06:35:46.244Z,40.86
2023-05-19T06:37:48.948Z,40.80
2023-05-19T06:39:54.017Z,40.57
2023-05-19T06:41:56.649Z,39.62
2023-05-19T06:43:59.749Z,39.81
2023-05-19T06:46:02.602Z,40.58
2023-05-19T06:48:05.773Z,40.59
2023-05-19T06:50:11.238Z,40.95
2023-05-19T06:52:13.874Z,41.68
2023-05-19T06:54:16.596Z,41.60
2023-05-19T06:56:19.494Z,40.93
2023-05-19T06:58:22.142Z,40.39
2023-05-19T07:00:25.204Z,41.35
2023-05-19T07:02:28.009Z,42.56
2023-05-19T07:04:30.693Z,41.02
2023-05-19T07:06:34.050Z,41.62
2023-05-19T07:08:37.527Z,42.19
2023-05-19T07:10:40.199Z,41.77
2023-05-19T07:12:43.007Z,42.16
2023-05-19T07:14:45.706Z,41.17
2023-05-19T07:16:48.303Z,41.46
2023-05-19T07:18:51.115Z,40.62
2023-05-19T07:20:54.175Z,41.54
2023-05-19T07:22:56.822Z,42.06
2023-05-19T07:24:59.580Z,42.42
2023-05-19T07:27:02.331Z,41.75
2023-05-19T07:29:04.972Z,41.76
2023-05-19T07:31:07.514Z,41.82
2023-05-19T07:33:10.229Z,42.27
2023-05-19T07:35:13.226Z,42.81
2023-05-19T07:37:16.821Z,40.43
2023-05-19T07:39:19.779Z,40.57
2023-05-19T07:41:23.156Z,42.25
2023-05-19T07:43:25.837Z,42.18
2023-05-19T07:45:31.410Z,42.51
2023-05-19T07:47:34.226Z,42.05
2023-05-19T07:49:36.868Z,41.40
2023-05-19T07:51:39.512Z,41.93
2023-05-19T07:53:42.036Z,40.75
2023-05-19T07:55:44.624Z,40.47
2023-05-19T07:57:47.479Z,41.35
2023-05-19T07:59:50.218Z,42.07
2023-05-19T08:01:53.026Z,40.73
2023-05-19T08:03:55.981Z,40.44
2023-05-19T08:05:58.549Z,41.10
2023-05-19T08:08:01.225Z,38.85
2023-05-19T08:10:04.298Z,40.76
2023-05-19T08:12:07.836Z,38.85
2023-05-19T08:14:11.041Z,37.23
2023-05-19T08:16:13.669Z,38.80
2023-05-19T08:18:17.396Z,38.17
2023-05-19T08:20:20.499Z,38.55
2023-05-19T08:22:23.390Z,38.12
2023-05-19T08:24:26.596Z,36.37
2023-05-19T08:26:29.507Z,35.95
2023-05-19T08:28:32.358Z,36.23
2023-05-19T08:30:35.243Z,37.01
2023-05-19T08:32:38.269Z,38.34
2023-05-19T08:34:41.574Z,38.60
2023-05-19T08:36:45.478Z,37.65
2023-05-19T08:38:48.115Z,37.61
2023-05-19T08:40:50.891Z,34.63
2023-05-19T08:42:54.603Z,36.03
2023-05-19T08:44:57.682Z,37.44
2023-05-19T08:47:12.939Z,36.05
2023-05-19T08:49:20.542Z,36.76
2023-05-19T08:51:44.846Z,34.93
2023-05-19T08:53:53.908Z,33.51
2023-05-19T08:56:10.130Z,33.63
2023-05-19T08:58:13.493Z,33.97
2023-05-19T09:00:17.225Z,34.24
2023-05-19T09:02:20.316Z,35.03
2023-05-19T09:04:25.999Z,35.02
2023-05-19T09:06:32.525Z,33.74
2023-05-19T09:08:36.202Z,32.99
2023-05-19T09:10:38.809Z,33.73
2023-05-19T09:12:43.250Z,34.93
2023-05-19T09:14:45.902Z,35.45
2023-05-19T09:16:51.211Z,35.02
2023-05-19T09:18:57.684Z,35.77
2023-05-19T09:21:03.148Z,33.63
2023-05-19T09:23:06.298Z,33.08
2023-05-19T09:25:19.767Z,31.38
2023-05-19T09:27:23.711Z,30.39
2023-05-19T09:29:26.347Z,30.71
2023-05-19T09:31:33.390Z,29.68
2023-05-19T09:33:45.634Z,29.66
2023-05-19T09:35:48.654Z,28.57
2023-05-19T09:37:51.328Z,29.98
2023-05-19T09:39:54.281Z,28.65
2023-05-19T09:41:59.965Z,29.51
2023-05-19T09:44:02.729Z,29.27
2023-05-19T09:46:11.986Z,28.69
2023-05-19T09:48:16.666Z,27.96
2023-05-19T09:50:19.307Z,28.28
2023-05-19T09:52:22.366Z,29.45
2023-05-19T09:54:25.687Z,30.24
2023-05-19T09:56:34.472Z,29.29
2023-05-19T09:58:37.803Z,30.34
2023-05-19T10:00:41.001Z,28.80
2023-05-19T10:02:48.460Z,31.03
2023-05-19T10:04:53.533Z,31.99
2023-05-19T10:06:59.911Z,29.33
2023-05-19T10:09:04.512Z,29.46
2023-05-19T10:11:07.880Z,29.78
2023-05-19T10:13:10.962Z,29.70
2023-05-19T10:15:15.702Z,28.87
2023-05-19T10:17:18.850Z,28.21
2023-05-19T10:19:23.222Z,26.81
2023-05-19T10:21:26.303Z,28.00
2023-05-19T10:23:28.928Z,26.56
2023-05-19T10:25:33.797Z,28.49
2023-05-19T10:27:40.867Z,26.70
2023-05-19T10:29:50.137Z,26.56
2023-05-19T10:31:55.322Z,29.61
2023-05-19T10:34:19.342Z,28.94
2023-05-19T10:36:24.842Z,29.19
2023-05-19T10:38:52.683Z,29.84
2023-05-19T10:41:08.405Z,28.85
2023-05-19T10:43:38.633Z,27.67
2023-05-19T10:45:49.708Z,27.12
2023-05-19T10:47:52.531Z,28.32
2023-05-19T10:49:56.025Z,26.99
2023-05-19T10:51:58.661Z,27.50
2023-05-19T10:54:11.473Z,27.97
2023-05-19T10:56:34.878Z,26.96
2023-05-19T10:58:44.166Z,26.45
2023-05-19T11:00:47.222Z,25.83
2023-05-19T11:02:56.281Z,26.34
2023-05-19T11:05:20.547Z,27.42
2023-05-19T11:07:24.972Z,27.24
2023-05-19T11:09:37.932Z,27.15
2023-05-19T11:11:54.343Z,28.03
2023-05-19T11:13:57.654Z,25.73
2023-05-19T11:16:08.345Z,27.03
2023-05-19T11:18:16.199Z,26.41
2023-05-19T11:20:25.839Z,26.19
2023-05-19T11:22:28.922Z,24.62
2023-05-19T11:24:44.711Z,23.63
2023-05-19T11:26:47.670Z,25.54
2023-05-19T11:28:52.189Z,25.71
2023-05-19T11:30:57.883Z,25.42
2023-05-19T11:33:01.294Z,25.46
2023-05-19T11:35:03.946Z,25.81
2023-05-19T11:37:10.129Z,26.26
2023-05-19T11:39:13.648Z,25.05
2023-05-19T11:41:18.199Z,25.82
2023-05-19T11:43:27.685Z,25.95
2023-05-19T11:45:33.295Z,25.27
2023-05-19T11:47:50.833Z,25.33
2023-05-19T11:49:59.194Z,24.48
2023-05-19T11:52:02.409Z,23.84
2023-05-19T11:54:05.126Z,23.36
2023-05-19T11:56:07.804Z,24.67
2023-05-19T11:58:10.377Z,23.71
2023-05-19T12:00:14.825Z,24.16
2023-05-19T12:02:20.404Z,23.45
2023-05-19T12:04:23.598Z,25.01
2023-05-19T12:06:27.115Z,23.86
2023-05-19T12:08:29.996Z,22.73
2023-05-19T12:10:34.393Z,21.73
2023-05-19T12:12:36.967Z,21.83
2023-05-19T12:14:39.654Z,21.76
2023-05-19T12:16:42.418Z,21.88
2023-05-19T12:18:45.142Z,21.38
2023-05-19T12:20:48.037Z,21.25
2023-05-19T12:22:52.027Z,21.68
2023-05-19T12:24:54.944Z,22.46
2023-05-19T12:27:10.376Z,20.92
2023-05-19T12:29:13.803Z,21.44
2023-05-19T12:31:16.603Z,20.75
2023-05-19T12:33:19.922Z,20.66
2023-05-19T12:35:27.032Z,20.84
2023-05-19T12:37:33.476Z,20.65
2023-05-19T12:39:36.532Z,19.93
2023-05-19T12:41:39.154Z,20.66
2023-05-19T12:43:41.805Z,20.88
2023-05-19T12:45:44.473Z,21.59
2023-05-19T12:47:50.537Z,21.10
2023-05-19T12:50:04.110Z,20.24
2023-05-19T12:52:12.752Z,20.48
2023-05-19T12:54:19.796Z,20.46
2023-05-19T12:56:27.138Z,20.28
2023-05-19T12:58:34.715Z,19.58
2023-05-19T13:00:42.635Z,20.43
2023-05-19T13:03:02.259Z,20.01
2023-05-19T13:05:05.353Z,20.78
2023-05-19T13:07:08.022Z,19.81
2023-05-19T13:09:11.605Z,20.09
2023-05-19T13:11:16.803Z,20.07
2023-05-19T13:13:20.276Z,21.50
2023-05-19T13:15:27.090Z,22.50
2023-05-19T13:17:30.946Z,24.69
2023-05-19T13:19:34.389Z,23.41
2023-05-19T13:21:38.714Z,24.10
2023-05-19T13:23:42.150Z,24.69
2023-05-19T13:25:45.542Z,25.02
2023-05-19T13:27:50.442Z,25.07
2023-05-19T13:29:53.806Z,26.80
2023-05-19T13:31:57.770Z,27.35
2023-05-19T13:34:03.129Z,24.51
2023-05-19T13:36:06.466Z,24.05
2023-05-19T13:38:10.605Z,25.43
2023-05-19T13:40:14.134Z,24.50
2023-05-19T13:42:17.831Z,25.89
2023-05-19T13:44:20.486Z,23.79
2023-05-19T13:46:32.770Z,24.09
2023-05-19T13:48:45.794Z,24.57
2023-05-19T13:50:48.472Z,24.84
2023-05-19T13:52:51.193Z,24.07
2023-05-19T13:54:57.022Z,24.20
2023-05-19T13:57:00.151Z,23.10
2023-05-19T13:59:04.247Z,23.76
2023-05-19T14:01:07.157Z,23.55
2023-05-19T14:03:10.483Z,26.11
2023-05-19T14:05:13.672Z,24.69
2023-05-19T14:07:17.038Z,24.12
2023-05-19T14:09:20.049Z,23.59
2023-05-19T14:11:22.922Z,24.32
2023-05-19T14:13:34.270Z,24.59
2023-05-19T14:15:39.157Z,23.83
2023-05-19T14:17:42.275Z,23.25
2023-05-19T14:19:45.072Z,23.95
2023-05-19T14:21:47.755Z,22.85
2023-05-19T14:23:50.452Z,23.87
2023-05-19T14:25:53.362Z,23.23
2023-05-19T14:27:55.996Z,25.67
2023-05-19T14:29:58.787Z,23.77
2023-05-19T14:32:03.501Z,24.21
2023-05-19T14:34:06.390Z,26.61
2023-05-19T14:36:09.765Z,24.50
2023-05-19T14:38:13.378Z,22.96
2023-05-19T14:40:16.046Z,24.32
2023-05-19T14:42:18.705Z,26.08
2023-05-19T14:44:21.407Z,23.78
2023-05-19T14:46:24.042Z,24.39
2023-05-19T14:48:26.705Z,26.43
2023-05-19T14:50:29.538Z,23.82
2023-05-19T14:52:32.278Z,23.88
2023-05-19T14:54:34.915Z,24.63
2023-05-19T14:56:37.773Z,23.13
2023-05-19T14:58:40.386Z,24.38
2023-05-19T15:00:43.715Z,23.24
2023-05-19T15:02:46.785Z,25.04
2023-05-19T15:04:49.573Z,23.80
2023-05-19T15:07:05.978Z,23.66
2023-05-19T15:09:14.855Z,24.73
2023-05-19T15:11:17.724Z,26.19
2023-05-19T15:13:21.657Z,26.69
2023-05-19T15:15:24.470Z,24.17
2023-05-19T15:17:27.164Z,26.91
2023-05-19T15:19:29.959Z,25.45
2023-05-19T15:21:32.808Z,26.05
2023-05-19T15:23:35.413Z,27.67
2023-05-19T15:25:38.238Z,25.02
2023-05-19T15:27:41.004Z,26.61
2023-05-19T15:29:43.897Z,26.39
2023-05-19T15:31:46.570Z,27.16
2023-05-19T15:33:49.326Z,26.52
2023-05-19T15:35:52.466Z,28.35
2023-05-19T15:37:55.235Z,28.85
2023-05-19T15:39:58.005Z,28.44
2023-05-19T15:42:00.791Z,27.88
2023-05-19T15:44:03.582Z,30.62
2023-05-19T15:46:06.437Z,30.32
2023-05-19T15:48:09.334Z,30.42
2023-05-19T15:50:14.775Z,29.03
2023-05-19T15:52:17.703Z,29.15
2023-05-19T15:54:20.575Z,29.05
2023-05-19T15:56:23.232Z,30.62
2023-05-19T15:58:26.045Z,30.14
2023-05-19T16:00:28.868Z,31.87
2023-05-19T16:02:31.631Z,32.79
2023-05-19T16:04:34.437Z,33.29
2023-05-19T16:06:37.126Z,32.30
2023-05-19T16:08:39.877Z,33.20
2023-05-19T16:10:42.545Z,36.06
2023-05-19T16:12:45.298Z,35.48
2023-05-19T16:14:47.944Z,34.86
2023-05-19T16:16:50.756Z,34.27
2023-05-19T16:18:53.689Z,34.57
2023-05-19T16:20:56.862Z,34.88
2023-05-19T16:22:59.611Z,36.00
2023-05-19T16:25:02.299Z,35.95
2023-05-19T16:27:07.598Z,37.05
2023-05-19T16:29:10.388Z,36.13
2023-05-19T16:31:13.168Z,36.43
2023-05-19T16:33:16.185Z,36.89
2023-05-19T16:35:18.934Z,37.79
2023-05-19T16:37:21.786Z,38.45
2023-05-19T16:39:24.404Z,39.02
2023-05-19T16:41:27.117Z,38.67
2023-05-19T16:43:29.731Z,38.61
2023-05-19T16:45:32.644Z,38.99
2023-05-19T16:47:35.780Z,39.96
2023-05-19T16:49:40.574Z,39.21
2023-05-19T16:51:43.328Z,38.49
2023-05-19T16:53:46.377Z,38.86
2023-05-19T16:55:49.022Z,40.70
2023-05-19T16:57:51.733Z,41.17
2023-05-19T16:59:54.368Z,39.48
2023-05-19T17:01:57.124Z,39.50
2023-05-19T17:03:59.823Z,39.51
2023-05-19T17:06:02.742Z,41.44
2023-05-19T17:08:06.286Z,39.65
2023-05-19T17:10:09.583Z,39.50
2023-05-19T17:12:12.461Z,39.33
2023-05-19T17:14:15.343Z,40.39
2023-05-19T17:16:18.421Z,39.19
2023-05-19T17:18:21.422Z,38.89
2023-05-19T17:20:24.093Z,39.25
2023-05-19T17:22:28.268Z,39.83
2023-05-19T17:24:33.502Z,40.53
2023-05-19T17:26:36.246Z,40.37
2023-05-19T17:28:39.283Z,40.20
2023-05-19T17:30:42.487Z,41.20
2023-05-19T17:32:45.286Z,41.32
2023-05-19T17:34:47.990Z,41.62
2023-05-19T17:36:50.794Z,40.69
2023-05-19T17:38:53.621Z,41.06
2023-05-19T17:41:03.037Z,41.10
2023-05-19T17:43:06.384Z,39.69
2023-05-19T17:45:12.185Z,39.53
2023-05-19T17:47:17.657Z,39.39
2023-05-19T17:49:21.284Z,40.19
2023-05-19T17:51:24.213Z,40.09
2023-05-19T17:53:27.771Z,41.07
2023-05-19T17:55:31.616Z,40.72
2023-05-19T17:57:35.727Z,40.72
2023-05-19T17:59:38.956Z,41.92
2023-05-19T18:01:42.012Z,42.28
2023-05-19T18:03:49.664Z,41.97
2023-05-19T18:05:52.916Z,42.30
2023-05-19T18:07:57.286Z,42.40
2023-05-19T18:10:01.751Z,41.99
2023-05-19T18:12:06.970Z,42.69
2023-05-19T18:14:09.598Z,42.51
2023-05-19T18:16:13.124Z,42.17
2023-05-19T18:18:15.886Z,42.51
2023-05-19T18:20:18.731Z,42.26
2023-05-19T18:22:21.521Z,41.44
2023-05-19T18:24:24.216Z,41.49
2023-05-19T18:26:26.965Z,42.77
2023-05-19T18:28:29.902Z,42.16
2023-05-19T18:30:32.857Z,42.25
2023-05-19T18:32:35.670Z,42.68
2023-05-19T18:34:38.316Z,42.78
2023-05-19T18:36:41.751Z,42.90
2023-05-19T18:38:44.483Z,43.69
2023-05-19T18:40:47.240Z,44.03
2023-05-19T18:42:50.521Z,43.00
2023-05-19T18:44:53.335Z,43.10
2023-05-19T18:46:56.059Z,43.89
2023-05-19T18:48:58.699Z,42.85
2023-05-19T18:51:03.698Z,42.87
2023-05-19T18:53:06.704Z,43.65
2023-05-19T18:55:10.124Z,43.39
2023-05-19T18:57:13.135Z,44.44
2023-05-19T18:59:15.957Z,43.46
2023-05-19T19:01:18.847Z,43.99
2023-05-19T19:03:21.702Z,44.16
2023-05-19T19:05:24.463Z,44.33
2023-05-19T19:07:27.964Z,44.41
2023-05-19T19:09:30.821Z,44.83
2023-05-19T19:11:33.541Z,44.65
2023-05-19T19:13:36.443Z,45.65
2023-05-19T19:15:39.977Z,45.43
2023-05-19T19:17:42.639Z,45.69
2023-05-19T19:19:45.514Z,45.72
2023-05-19T19:21:48.366Z,45.62
2023-05-19T19:23:56.526Z,46.05
2023-05-19T19:25:59.366Z,45.90
2023-05-19T19:28:02.592Z,45.98
2023-05-19T19:30:05.923Z,46.00
2023-05-19T19:32:11.246Z,46.27
2023-05-19T19:34:16.208Z,46.30
2023-05-19T19:36:18.863Z,47.08
2023-05-19T19:38:21.619Z,46.73
2023-05-19T19:40:25.206Z,47.06
2023-05-19T19:42:28.189Z,47.95
2023-05-19T19:44:30.833Z,47.66
2023-05-19T19:46:33.578Z,47.64
2023-05-19T19:48:36.429Z,47.30
2023-05-19T19:50:39.111Z,47.25
2023-05-19T19:52:41.771Z,47.09
2023-05-19T19:54:44.528Z,47.27
2023-05-19T19:56:47.529Z,47.22
2023-05-19T19:58:50.722Z,47.62
2023-05-19T20:01:02.031Z,48.09
2023-05-19T20:03:06.011Z,48.39
2023-05-19T20:05:09.188Z,48.26
2023-05-19T20:07:12.649Z,48.62
2023-05-19T20:09:16.273Z,49.37
2023-05-19T20:11:20.013Z,48.85
2023-05-19T20:13:22.756Z,49.63
2023-05-19T20:15:25.485Z,49.06
2023-05-19T20:17:28.168Z,49.51
2023-05-19T20:19:31.030Z,48.64
2023-05-19T20:21:33.990Z,48.35
2023-05-19T20:23:38.990Z,48.90
2023-05-19T20:25:53.647Z,48.82
2023-05-19T20:28:02.348Z,49.04
2023-05-19T20:30:05.943Z,49.95
2023-05-19T20:32:11.401Z,49.45
2023-05-19T20:34:14.117Z,49.71
2023-05-19T20:36:16.808Z,49.56
2023-05-19T20:38:19.552Z,49.26
2023-05-19T20:40:22.271Z,49.34
2023-05-19T20:42:24.912Z,48.75
2023-05-19T20:44:27.504Z,48.30
2023-05-19T20:46:30.268Z,48.66
2023-05-19T20:48:33.154Z,48.56
2023-05-19T20:50:35.848Z,49.32
2023-05-19T20:52:38.607Z,48.65
2023-05-19T20:54:41.273Z,50.13
2023-05-19T20:56:43.925Z,50.07
2023-05-19T20:58:46.931Z,49.96
2023-05-19T21:00:54.317Z,51.06
2023-05-19T21:02:57.157Z,50.15
2023-05-19T21:04:59.988Z,51.18
2023-05-19T21:07:02.787Z,50.63
2023-05-19T21:09:07.005Z,50.70
2023-05-19T21:11:09.798Z,51.43
2023-05-19T21:13:12.600Z,50.99
2023-05-19T21:15:15.894Z,51.35
2023-05-19T21:17:19.354Z,51.65
2023-05-19T21:19:23.123Z,51.86
2023-05-19T21:21:26.310Z,51.69
2023-05-19T21:23:29.049Z,51.41
2023-05-19T21:25:31.963Z,51.61
2023-05-19T21:27:35.685Z,51.63
2023-05-19T21:29:38.486Z,51.63
2023-05-19T21:31:41.329Z,52.37
2023-05-19T21:33:44.251Z,52.10
2023-05-19T21:35:47.200Z,52.21
2023-05-19T21:37:49.829Z,52.81
2023-05-19T21:39:52.790Z,52.66
2023-05-19T21:41:55.669Z,53.28
2023-05-19T21:43:58.363Z,53.32
2023-05-19T21:46:01.291Z,53.21
2023-05-19T21:48:04.196Z,53.85
2023-05-19T21:50:07.563Z,53.49
2023-05-19T21:52:10.527Z,53.83
2023-05-19T21:54:13.283Z,53.99
2023-05-19T21:56:16.740Z,53.94
2023-05-19T21:58:19.757Z,53.95
2023-05-19T22:00:22.978Z,53.62
2023-05-19T22:02:25.771Z,53.90
2023-05-19T22:04:31.630Z,54.00
2023-05-19T22:06:34.491Z,54.23
2023-05-19T22:08:37.397Z,54.58
2023-05-19T22:10:40.114Z,54.72
2023-05-19T22:12:42.777Z,54.93
2023-05-19T22:14:45.309Z,55.17
2023-05-19T22:16:47.842Z,55.59
2023-05-19T22:18:50.601Z,55.66
2023-05-19T22:20:53.338Z,55.44
2023-05-19T22:22:57.458Z,55.97
2023-05-19T22:25:00.177Z,55.74
2023-05-19T22:27:02.796Z,56.15
2023-05-19T22:29:05.322Z,56.14
2023-05-19T22:31:07.906Z,55.87
2023-05-19T22:33:12.118Z,56.26
2023-05-19T22:35:14.752Z,55.99
2023-05-19T22:37:17.433Z,56.57
2023-05-19T22:39:20.046Z,56.80
2023-05-19T22:41:22.807Z,56.84
2023-05-19T22:43:25.716Z,57.25
2023-05-19T22:45:28.225Z,57.12
2023-05-19T22:47:30.858Z,57.24
2023-05-19T22:49:33.509Z,57.56
2023-05-19T22:51:36.118Z,57.71
2023-05-19T22:53:38.665Z,57.53
2023-05-19T22:55:41.376Z,57.66
2023-05-19T22:57:43.949Z,58.13
2023-05-19T22:59:46.672Z,57.91
2023-05-19T23:01:49.553Z,58.15
2023-05-19T23:03:52.184Z,58.25
2023-05-19T23:05:54.811Z,58.33
2023-05-19T23:07:57.429Z,58.42
2023-05-19T23:10:00.173Z,58.55
2023-05-19T23:12:02.794Z,58.49
2023-05-19T23:14:05.840Z,59.05
2023-05-19T23:16:08.651Z,59.01
2023-05-19T23:18:11.809Z,58.86
2023-05-19T23:20:14.587Z,58.91
2023-05-19T23:22:17.403Z,58.96
2023-05-19T23:24:19.956Z,59.29
2023-05-19T23:26:22.636Z,59.88
2023-05-19T23:28:25.247Z,60.03
2023-05-19T23:30:30.461Z,60.18
2023-05-19T23:32:33.260Z,60.35
2023-05-19T23:34:35.842Z,60.71
2023-05-19T23:36:38.502Z,60.66
2023-05-19T23:38:41.135Z,60.84
2023-05-19T23:40:44.097Z,61.04
2023-05-19T23:42:46.716Z,61.26
2023-05-19T23:44:49.454Z,61.06
2023-05-19T23:46:52.041Z,61.15
2023-05-19T23:48:54.760Z,61.37
2023-05-19T23:50:58.514Z,61.06
2023-05-19T23:53:01.055Z,61.53
2023-05-19T23:55:03.907Z,61.36
2023-05-19T23:57:08.164Z,61.66
2023-05-19T23:59:11.319Z,61.50
